createdAt,value
2022-09-28T00:02:05.683Z,99589.65
2022-09-28T00:04:35.458Z,99590.98
2022-09-28T00:07:04.917Z,99592.59
2022-09-28T00:09:34.836Z,99584.28
2022-09-28T00:12:04.218Z,99579.47
2022-09-28T00:14:34.066Z,99584.81
2022-09-28T00:17:03.690Z,99576.25
2022-09-28T00:19:33.039Z,99573.86
2022-09-28T00:22:02.544Z,99574.91
2022-09-28T00:24:31.796Z,99574.11
2022-09-28T00:27:02.747Z,99574.91
2022-09-28T00:29:36.557Z,99581.60
2022-09-28T00:32:08.704Z,99584.84
2022-09-28T00:34:41.179Z,99583.76
2022-09-28T00:37:11.188Z,99586.44
2022-09-28T00:39:41.435Z,99586.17
2022-09-28T00:42:13.852Z,99588.84
2022-09-28T00:44:53.877Z,99584.28
2022-09-28T00:47:29.373Z,99585.62
2022-09-28T00:50:01.747Z,99580.03
2022-09-28T00:52:37.233Z,99579.77
2022-09-28T00:55:09.908Z,99575.77
2022-09-28T00:57:40.976Z,99581.92
2022-09-28T01:00:11.623Z,99585.94
2022-09-28T01:02:41.690Z,99579.52
2022-09-28T01:05:11.678Z,99588.87
2022-09-28T01:07:41.965Z,99584.61
2022-09-28T01:10:11.513Z,99587.55
2022-09-28T01:12:40.937Z,99583.81
2022-09-28T01:15:11.642Z,99591.56
2022-09-28T01:17:53.595Z,99593.20
2022-09-28T01:20:46.000Z,99593.20
2022-09-28T01:23:27.669Z,99601.48
2022-09-28T01:26:18.618Z,99602.52
2022-09-28T01:28:49.269Z,99604.13
2022-09-28T01:31:19.710Z,99605.98
2022-09-28T01:33:52.242Z,99607.34
2022-09-28T01:36:26.192Z,99605.74
2022-09-28T01:39:02.162Z,99598.24
2022-09-28T01:41:32.815Z,99602.25
2022-09-28T01:44:03.789Z,99601.16
2022-09-28T01:46:38.941Z,99600.62
2022-09-28T01:49:10.907Z,99600.35
2022-09-28T01:51:48.959Z,99593.14
2022-09-28T01:54:33.321Z,99600.62
2022-09-28T01:57:09.782Z,99599.00
2022-09-28T01:59:41.960Z,99595.53
2022-09-28T02:02:18.869Z,99584.28
2022-09-28T02:04:54.536Z,99585.89
2022-09-28T02:07:37.276Z,99591.77
2022-09-28T02:10:16.023Z,99585.09
2022-09-28T02:12:51.693Z,99584.52
2022-09-28T02:15:27.751Z,99587.73
2022-09-28T02:17:57.226Z,99582.91
2022-09-28T02:20:26.732Z,99582.63
2022-09-28T02:22:57.256Z,99580.23
2022-09-28T02:25:35.954Z,99586.12
2022-09-28T02:28:07.706Z,99583.43
2022-09-28T02:30:39.297Z,99584.48
2022-09-28T02:33:17.588Z,99573.00
2022-09-28T02:35:47.372Z,99574.03
2022-09-28T02:38:17.985Z,99578.05
2022-09-28T02:40:50.922Z,99568.17
2022-09-28T02:43:26.042Z,99574.34
2022-09-28T02:46:04.381Z,99575.93
2022-09-28T02:49:10.621Z,99581.04
2022-09-28T02:51:46.106Z,99585.06
2022-09-28T02:54:34.742Z,99588.27
2022-09-28T02:57:27.429Z,99592.84
2022-09-28T03:00:05.604Z,99589.62
2022-09-28T03:03:09.243Z,99596.34
2022-09-28T03:05:47.768Z,99597.69
2022-09-28T03:08:23.195Z,99606.80
2022-09-28T03:10:59.019Z,99602.24
2022-09-28T03:13:29.156Z,99604.66
2022-09-28T03:16:09.866Z,99602.53
2022-09-28T03:18:39.780Z,99598.24
2022-09-28T03:21:10.627Z,99604.11
2022-09-28T03:23:40.932Z,99600.91
2022-09-28T03:26:12.801Z,99605.19
2022-09-28T03:28:42.372Z,99605.43
2022-09-28T03:31:13.335Z,99611.59
2022-09-28T03:33:42.560Z,99607.27
2022-09-28T03:36:12.026Z,99609.14
2022-09-28T03:38:41.501Z,99609.16
2022-09-28T03:41:12.141Z,99609.41
2022-09-28T03:43:43.039Z,99604.05
2022-09-28T03:46:14.146Z,99605.14
2022-09-28T03:48:45.181Z,99604.31
2022-09-28T03:51:14.997Z,99600.31
2022-09-28T03:53:44.217Z,99597.08
2022-09-28T03:56:15.677Z,99601.62
2022-09-28T03:58:44.898Z,99599.48
2022-09-28T04:01:18.502Z,99597.63
2022-09-28T04:03:48.861Z,99596.84
2022-09-28T04:06:18.216Z,99602.48
2022-09-28T04:08:47.693Z,99600.89
2022-09-28T04:11:17.192Z,99599.30
2022-09-28T04:13:50.174Z,99601.43
2022-09-28T04:16:19.921Z,99601.98
2022-09-28T04:19:09.347Z,99602.52
2022-09-28T04:21:51.554Z,99603.33
2022-09-28T04:24:21.400Z,99607.33
2022-09-28T04:26:50.674Z,99603.85
2022-09-28T04:29:21.110Z,99601.72
2022-09-28T04:31:53.820Z,99600.92
2022-09-28T04:34:24.278Z,99604.94
2022-09-28T04:36:53.402Z,99603.59
2022-09-28T04:39:22.605Z,99602.52
2022-09-28T04:41:53.566Z,99601.18
2022-09-28T04:44:22.884Z,99607.09
2022-09-28T04:46:55.638Z,99602.02
2022-09-28T04:49:29.547Z,99604.67
2022-09-28T04:52:00.468Z,99603.88
2022-09-28T04:54:29.854Z,99604.67
2022-09-28T04:56:59.531Z,99606.03
2022-09-28T04:59:28.824Z,99608.95
2022-09-28T05:01:58.459Z,99611.09
2022-09-28T05:04:32.374Z,99611.36
2022-09-28T05:07:15.457Z,99614.30
2022-09-28T05:09:45.267Z,99611.88
2022-09-28T05:12:14.544Z,99610.56
2022-09-28T05:14:44.148Z,99616.70
2022-09-28T05:17:13.346Z,99612.69
2022-09-28T05:20:00.852Z,99610.00
2022-09-28T05:22:30.361Z,99614.83
2022-09-28T05:25:00.608Z,99620.45
2022-09-28T05:27:31.617Z,99619.36
2022-09-28T05:30:02.672Z,99622.85
2022-09-28T05:32:51.950Z,99611.63
2022-09-28T05:35:23.129Z,99616.70
2022-09-28T05:37:52.598Z,99620.72
2022-09-28T05:40:23.281Z,99620.72
2022-09-28T05:42:52.517Z,99616.44
2022-09-28T05:45:22.752Z,99618.84
2022-09-28T05:47:52.461Z,99616.70
2022-09-28T05:50:23.547Z,99622.59
2022-09-28T05:53:03.627Z,99620.97
2022-09-28T05:55:33.590Z,99625.50
2022-09-28T05:58:05.876Z,99631.41
2022-09-28T06:00:37.147Z,99630.56
2022-09-28T06:03:09.644Z,99621.48
2022-09-28T06:05:39.774Z,99628.41
2022-09-28T06:08:14.017Z,99626.29
2022-09-28T06:10:44.949Z,99626.53
2022-09-28T06:13:15.494Z,99622.27
2022-09-28T06:15:46.447Z,99621.98
2022-09-28T06:18:16.422Z,99625.20
2022-09-28T06:21:05.775Z,99617.70
2022-09-28T06:23:36.943Z,99623.53
2022-09-28T06:26:07.467Z,99623.00
2022-09-28T06:28:37.535Z,99612.59
2022-09-28T06:31:07.628Z,99629.67
2022-09-28T06:33:40.146Z,99630.15
2022-09-28T06:36:10.986Z,99636.22
2022-09-28T06:38:40.721Z,99621.70
2022-09-28T06:41:11.236Z,99636.39
2022-09-28T06:43:42.287Z,99635.33
2022-09-28T06:46:16.432Z,99643.37
2022-09-28T06:48:54.353Z,99637.47
2022-09-28T06:51:38.016Z,99642.03
2022-09-28T06:54:22.740Z,99642.58
2022-09-28T06:56:54.673Z,99635.64
2022-09-28T06:59:24.162Z,99636.95
2022-09-28T07:01:54.617Z,99643.66
2022-09-28T07:04:25.707Z,99650.02
2022-09-28T07:07:12.822Z,99649.25
2022-09-28T07:09:55.507Z,99649.48
2022-09-28T07:12:32.293Z,99651.88
2022-09-28T07:15:03.978Z,99661.48
2022-09-28T07:17:42.497Z,99657.18
2022-09-28T07:20:17.029Z,99661.74
2022-09-28T07:22:43.333Z,99669.76
2022-09-28T07:25:12.350Z,99666.34
2022-09-28T07:28:00.943Z,99671.75
2022-09-28T07:30:48.305Z,99678.47
2022-09-28T07:33:35.490Z,99672.01
2022-09-28T07:36:12.233Z,99673.81
2022-09-28T07:38:41.911Z,99677.77
2022-09-28T07:41:15.843Z,99676.88
2022-09-28T07:43:48.409Z,99680.87
2022-09-28T07:46:17.750Z,99676.50
2022-09-28T07:48:51.484Z,99677.25
2022-09-28T07:51:22.417Z,99684.69
2022-09-28T07:53:59.176Z,99682.52
2022-09-28T07:56:42.216Z,99692.03
2022-09-28T07:59:19.576Z,99692.74
2022-09-28T08:01:56.722Z,99688.34
2022-09-28T08:04:26.248Z,99686.41
2022-09-28T08:06:55.542Z,99689.23
2022-09-28T08:09:25.193Z,99698.28
2022-09-28T08:12:08.331Z,99697.03
2022-09-28T08:14:40.058Z,99687.94
2022-09-28T08:17:19.822Z,99694.24
2022-09-28T08:20:08.446Z,99695.14
2022-09-28T08:22:38.705Z,99696.61
2022-09-28T08:25:08.914Z,99703.92
2022-09-28T08:27:38.291Z,99708.98
2022-09-28T08:30:08.957Z,99706.05
2022-09-28T08:32:52.142Z,99703.44
2022-09-28T08:35:24.777Z,99708.11
2022-09-28T08:38:11.958Z,99707.77
2022-09-28T08:41:10.070Z,99717.97
2022-09-28T08:43:50.226Z,99715.11
2022-09-28T08:46:25.185Z,99721.92
2022-09-28T08:49:25.509Z,99720.57
2022-09-28T08:52:13.555Z,99721.89
2022-09-28T08:54:49.928Z,99731.94
2022-09-28T08:57:30.381Z,99725.83
2022-09-28T09:00:01.039Z,99733.26
2022-09-28T09:02:36.268Z,99726.00
2022-09-28T09:05:15.691Z,99735.73
2022-09-28T09:08:07.629Z,99742.48
2022-09-28T09:10:47.143Z,99739.73
2022-09-28T09:13:39.353Z,99751.31
2022-09-28T09:16:21.327Z,99745.22
2022-09-28T09:19:36.120Z,99753.58
2022-09-28T09:22:16.104Z,99753.11
2022-09-28T09:24:48.582Z,99753.41
2022-09-28T09:27:39.503Z,99749.07
2022-09-28T09:30:19.887Z,99753.58
2022-09-28T09:33:17.145Z,99757.34
2022-09-28T09:36:06.406Z,99758.42
2022-09-28T09:38:46.688Z,99755.64
2022-09-28T09:41:53.864Z,99752.57
2022-09-28T09:44:55.502Z,99753.66
2022-09-28T09:47:29.765Z,99755.02
2022-09-28T09:50:08.464Z,99767.65
2022-09-28T09:52:44.500Z,99766.66
2022-09-28T09:55:29.682Z,99760.98
2022-09-28T09:58:12.179Z,99767.75
2022-09-28T10:00:48.033Z,99762.34
2022-09-28T10:03:30.013Z,99764.05
2022-09-28T10:06:09.871Z,99768.91
2022-09-28T10:08:42.160Z,99770.36
2022-09-28T10:11:16.422Z,99764.94
2022-09-28T10:13:49.474Z,99767.97
2022-09-28T10:16:26.235Z,99763.20
2022-09-28T10:18:57.383Z,99774.93
2022-09-28T10:21:41.472Z,99775.41
2022-09-28T10:24:30.800Z,99770.66
2022-09-28T10:27:08.895Z,99771.78
2022-09-28T10:29:57.329Z,99770.23
2022-09-28T10:32:46.507Z,99770.55
2022-09-28T10:35:19.127Z,99768.81
2022-09-28T10:38:07.522Z,99766.97
2022-09-28T10:41:01.955Z,99768.83
2022-09-28T10:44:08.774Z,99764.17
2022-09-28T10:46:40.601Z,99767.26
2022-09-28T10:49:18.728Z,99769.41
2022-09-28T10:51:59.155Z,99767.83
2022-09-28T10:54:31.774Z,99774.93
2022-09-28T10:57:02.272Z,99766.06
2022-09-28T10:59:43.067Z,99764.98
2022-09-28T11:02:32.393Z,99773.98
2022-09-28T11:05:04.563Z,99771.65
2022-09-28T11:07:38.946Z,99768.09
2022-09-28T11:10:12.355Z,99767.31
2022-09-28T11:12:44.089Z,99768.39
2022-09-28T11:15:18.889Z,99763.02
2022-09-28T11:17:48.502Z,99772.20
2022-09-28T11:20:29.180Z,99764.94
2022-09-28T11:23:03.598Z,99756.43
2022-09-28T11:25:34.591Z,99753.61
2022-09-28T11:28:04.916Z,99759.91
2022-09-28T11:30:52.126Z,99760.73
2022-09-28T11:33:44.891Z,99757.44
2022-09-28T11:36:39.859Z,99761.94
2022-09-28T11:39:30.592Z,99758.61
2022-09-28T11:42:16.389Z,99761.34
2022-09-28T11:44:47.054Z,99757.94
2022-09-28T11:47:44.420Z,99760.98
2022-09-28T11:50:29.065Z,99757.52
2022-09-28T11:53:13.433Z,99757.44
2022-09-28T11:55:50.129Z,99751.72
2022-09-28T11:58:40.550Z,99752.92
2022-09-28T12:01:34.642Z,99761.64
2022-09-28T12:04:11.819Z,99756.69
2022-09-28T12:06:47.342Z,99769.85
2022-09-28T12:09:20.960Z,99764.95
2022-09-28T12:12:01.781Z,99767.48
2022-09-28T12:14:47.128Z,99765.84
2022-09-28T12:17:24.694Z,99765.70
2022-09-28T12:20:06.019Z,99766.75
2022-09-28T12:22:41.299Z,99769.86
2022-09-28T12:25:13.992Z,99768.34
2022-09-28T12:27:52.031Z,99767.02
2022-09-28T12:30:24.676Z,99782.66
2022-09-28T12:33:09.363Z,99770.56
2022-09-28T12:35:53.596Z,99768.95
2022-09-28T12:38:42.518Z,99774.80
2022-09-28T12:41:16.730Z,99777.08
2022-09-28T12:44:16.519Z,99770.93
2022-09-28T12:47:22.861Z,99769.36
2022-09-28T12:52:58.150Z,99762.63
2022-09-28T12:55:55.497Z,99759.08
2022-09-28T12:59:01.143Z,99766.69
2022-09-28T13:01:42.144Z,99763.69
2022-09-28T13:04:26.079Z,99763.22
2022-09-28T13:07:13.632Z,99763.73
2022-09-28T13:09:55.355Z,99768.70
2022-09-28T13:12:27.448Z,99777.43
2022-09-28T13:15:12.317Z,99772.98
2022-09-28T13:17:44.699Z,99773.46
2022-09-28T13:20:32.408Z,99782.20
2022-09-28T13:23:07.933Z,99779.98
2022-09-28T13:25:37.771Z,99789.33
2022-09-28T13:28:07.498Z,99783.89
2022-09-28T13:30:37.713Z,99789.09
2022-09-28T13:33:08.517Z,99786.16
2022-09-28T13:35:41.006Z,99785.52
2022-09-28T13:38:22.714Z,99791.70
2022-09-28T13:41:10.634Z,99793.46
2022-09-28T13:43:59.487Z,99792.66
2022-09-28T13:46:47.227Z,99795.26
2022-09-28T13:49:25.709Z,99801.24
2022-09-28T13:52:06.585Z,99802.37
2022-09-28T13:54:41.661Z,99796.30
2022-09-28T13:57:34.290Z,99797.49
2022-09-28T14:00:18.388Z,99796.16
2022-09-28T14:03:25.668Z,99794.39
2022-09-28T14:06:10.888Z,99788.17
2022-09-28T14:09:01.476Z,99793.14
2022-09-28T14:11:36.796Z,99797.33
2022-09-28T14:14:13.928Z,99788.33
2022-09-28T14:16:43.573Z,99785.39
2022-09-28T14:19:25.225Z,99787.41
2022-09-28T14:22:06.603Z,99775.80
2022-09-28T14:24:55.519Z,99782.76
2022-09-28T14:27:40.346Z,99789.50
2022-09-28T14:30:15.705Z,99783.12
2022-09-28T14:32:51.246Z,99794.47
2022-09-28T14:35:31.284Z,99789.63
2022-09-28T14:38:21.658Z,99796.33
2022-09-28T14:41:13.705Z,99802.63
2022-09-28T14:43:49.456Z,99804.06
2022-09-28T14:46:21.894Z,99803.50
2022-09-28T14:49:09.070Z,99803.27
2022-09-28T14:51:57.377Z,99799.45
2022-09-28T14:54:28.786Z,99803.27
2022-09-28T14:57:10.409Z,99809.10
2022-09-28T14:59:46.203Z,99804.62
2022-09-28T15:02:24.302Z,99810.30
2022-09-28T15:05:02.694Z,99811.95
2022-09-28T15:07:50.673Z,99809.25
2022-09-28T15:10:30.814Z,99811.66
2022-09-28T15:13:04.479Z,99823.95
2022-09-28T15:15:40.058Z,99822.06
2022-09-28T15:18:21.454Z,99821.86
2022-09-28T15:20:51.027Z,99824.97
2022-09-28T15:23:29.523Z,99830.85
2022-09-28T15:25:59.152Z,99823.69
2022-09-28T15:28:28.411Z,99823.56
2022-09-28T15:31:01.894Z,99828.73
2022-09-28T15:33:51.868Z,99826.29
2022-09-28T15:36:30.007Z,99829.50
2022-09-28T15:39:04.735Z,99831.28
2022-09-28T15:41:35.134Z,99824.84
2022-09-28T15:44:24.061Z,99825.03
2022-09-28T15:46:58.102Z,99822.58
2022-09-28T15:49:39.231Z,99821.64
2022-09-28T15:52:11.158Z,99817.42
2022-09-28T15:54:44.981Z,99824.16
2022-09-28T15:57:29.440Z,99818.33
2022-09-28T15:59:59.511Z,99820.21
2022-09-28T16:02:29.260Z,99820.84
2022-09-28T16:05:01.020Z,99822.49
2022-09-28T16:07:39.461Z,99821.80
2022-09-28T16:10:15.398Z,99828.30
2022-09-28T16:12:50.622Z,99825.63
2022-09-28T16:15:23.167Z,99826.30
2022-09-28T16:18:03.315Z,99826.13
2022-09-28T16:20:38.086Z,99827.47
2022-09-28T16:23:10.108Z,99827.92
2022-09-28T16:25:39.663Z,99828.91
2022-09-28T16:28:12.036Z,99822.41
2022-09-28T16:30:44.478Z,99824.57
2022-09-28T16:33:32.395Z,99828.19
2022-09-28T16:36:03.429Z,99825.98
2022-09-28T16:38:32.699Z,99826.66
2022-09-28T16:41:02.898Z,99823.98
2022-09-28T16:43:34.997Z,99836.46
2022-09-28T16:46:09.891Z,99829.86
2022-09-28T16:48:51.158Z,99829.47
2022-09-28T16:51:22.640Z,99827.83
2022-09-28T16:54:10.238Z,99826.04
2022-09-28T16:56:39.573Z,99835.47
2022-09-28T16:59:13.596Z,99838.53
2022-09-28T17:01:43.497Z,99837.24
2022-09-28T17:04:12.904Z,99840.87
2022-09-28T17:06:43.513Z,99841.17
2022-09-28T17:09:15.897Z,99846.41
2022-09-28T17:11:45.225Z,99854.52
2022-09-28T17:14:14.543Z,99848.94
2022-09-28T17:19:21.164Z,99845.55
2022-09-28T17:21:51.568Z,99849.08
2022-09-28T17:24:21.262Z,99849.66
2022-09-28T17:26:51.933Z,99853.16
2022-09-28T17:29:21.335Z,99851.30
2022-09-28T17:31:50.635Z,99857.19
2022-09-28T17:34:20.643Z,99863.45
2022-09-28T17:36:50.174Z,99864.28
2022-09-28T17:39:20.240Z,99866.54
2022-09-28T17:41:49.999Z,99873.61
2022-09-28T17:44:20.574Z,99875.24
2022-09-28T17:46:50.997Z,99873.96
2022-09-28T17:49:20.264Z,99878.53
2022-09-28T17:51:50.295Z,99878.25
2022-09-28T17:54:21.156Z,99874.22
2022-09-28T17:56:50.757Z,99874.19
2022-09-28T17:59:20.112Z,99877.16
2022-09-28T18:01:49.527Z,99869.42
2022-09-28T18:04:47.109Z,99871.59
2022-09-28T18:06:51.091Z,99873.50
2022-09-28T18:09:22.089Z,99873.53
2022-09-28T18:11:52.955Z,99872.45
2022-09-28T18:14:22.673Z,99885.33
2022-09-28T18:16:52.142Z,99877.56
2022-09-28T18:19:21.441Z,99883.50
2022-09-28T18:21:50.767Z,99877.89
2022-09-28T18:24:20.314Z,99877.91
2022-09-28T18:26:49.628Z,99886.53
2022-09-28T18:29:19.285Z,99882.83
2022-09-28T18:31:48.970Z,99879.63
2022-09-28T18:34:18.562Z,99884.75
2022-09-28T18:36:48.494Z,99882.37
2022-09-28T18:39:17.959Z,99883.44
2022-09-28T18:41:47.200Z,99879.69
2022-09-28T18:44:16.545Z,99886.42
2022-09-28T18:46:46.145Z,99890.17
2022-09-28T18:49:15.668Z,99886.42
2022-09-28T18:51:44.883Z,99890.73
2022-09-28T18:54:14.252Z,99896.12
2022-09-28T18:56:43.736Z,99903.34
2022-09-28T18:59:14.313Z,99896.91
2022-09-28T19:01:44.689Z,99893.98
2022-09-28T19:04:14.148Z,99899.89
2022-09-28T19:06:44.879Z,99897.73
2022-09-28T19:09:14.366Z,99900.42
2022-09-28T19:11:43.804Z,99902.33
2022-09-28T19:14:14.957Z,99898.28
2022-09-28T19:16:45.707Z,99902.86
2022-09-28T19:19:17.464Z,99903.41
2022-09-28T19:21:47.709Z,99907.42
2022-09-28T19:24:18.358Z,99896.95
2022-09-28T19:26:47.723Z,99901.77
2022-09-28T19:29:17.397Z,99901.52
2022-09-28T19:31:47.052Z,99905.77
2022-09-28T19:34:16.857Z,99904.44
2022-09-28T19:36:46.556Z,99910.07
2022-09-28T19:39:16.599Z,99907.39
2022-09-28T19:41:53.050Z,99913.83
2022-09-28T19:44:27.821Z,99910.34
2022-09-28T19:47:03.884Z,99913.02
2022-09-28T19:49:35.102Z,99910.05
2022-09-28T19:52:13.338Z,99912.19
2022-09-28T19:54:38.497Z,99911.14
2022-09-28T19:57:11.542Z,99911.41
2022-09-28T19:59:40.802Z,99915.42
2022-09-28T20:02:11.985Z,99916.48
2022-09-28T20:04:41.421Z,99915.16
2022-09-28T20:07:10.802Z,99915.16
2022-09-28T20:09:40.067Z,99925.34
2022-09-28T20:12:09.623Z,99924.52
2022-09-28T20:14:40.464Z,99917.03
2022-09-28T20:17:11.051Z,99923.98
2022-09-28T20:19:40.297Z,99918.61
2022-09-28T20:22:09.719Z,99918.64
2022-09-28T20:24:38.941Z,99924.25
2022-09-28T20:27:08.785Z,99916.20
2022-09-28T20:29:38.004Z,99926.37
2022-09-28T20:32:08.998Z,99919.39
2022-09-28T20:34:38.213Z,99913.76
2022-09-28T20:37:07.520Z,99917.78
2022-09-28T20:39:39.401Z,99916.72
2022-09-28T20:42:08.761Z,99916.42
2022-09-28T20:44:38.113Z,99919.38
2022-09-28T20:47:07.596Z,99920.71
2022-09-28T20:49:36.903Z,99914.03
2022-09-28T20:52:06.292Z,99916.43
2022-09-28T20:54:38.007Z,99918.55
2022-09-28T20:57:09.019Z,99920.16
2022-09-28T20:59:38.283Z,99913.98
2022-09-28T21:02:08.984Z,99912.90
2022-09-28T21:04:38.486Z,99911.56
2022-09-28T21:07:08.161Z,99916.11
2022-09-28T21:09:37.968Z,99913.44
2022-09-28T21:12:08.930Z,99918.01
2022-09-28T21:14:38.134Z,99917.74
2022-09-28T21:17:07.354Z,99921.76
2022-09-28T21:19:36.588Z,99920.42
2022-09-28T21:22:06.919Z,99911.32
2022-09-28T21:24:36.957Z,99915.05
2022-09-28T21:27:06.218Z,99909.95
2022-09-28T21:29:35.814Z,99923.33
2022-09-28T21:32:06.088Z,99925.20
2022-09-28T21:34:36.012Z,99919.87
2022-09-28T21:37:05.323Z,99922.78
2022-09-28T21:39:37.028Z,99934.32
2022-09-28T21:42:06.398Z,99928.41
2022-09-28T21:44:35.994Z,99928.41
2022-09-28T21:47:05.436Z,99926.00
2022-09-28T21:49:34.830Z,99928.66
2022-09-28T21:52:04.033Z,99933.19
2022-09-28T21:54:35.006Z,99928.88
2022-09-28T21:57:04.721Z,99932.36
2022-09-28T21:59:33.966Z,99936.64
2022-09-28T22:02:04.925Z,99944.13
2022-09-28T22:04:34.268Z,99944.38
2022-09-28T22:07:05.347Z,99949.19
2022-09-28T22:09:34.626Z,99944.64
2022-09-28T22:12:03.996Z,99954.54
2022-09-28T22:14:33.514Z,99947.56
2022-09-28T22:17:02.811Z,99951.30
2022-09-28T22:19:32.287Z,99947.56
2022-09-28T22:22:01.618Z,99952.08
2022-09-28T22:24:30.839Z,99951.81
2022-09-28T22:27:00.147Z,99955.82
2022-09-28T22:29:29.438Z,99957.69
2022-09-28T22:32:00.326Z,99960.61
2022-09-28T22:34:31.664Z,99960.61
2022-09-28T22:37:03.042Z,99959.27
2022-09-28T22:39:37.475Z,99956.30
2022-09-28T22:42:04.629Z,99961.91
2022-09-28T22:44:35.752Z,99957.60
2022-09-28T22:47:05.346Z,99966.16
2022-09-28T22:49:34.551Z,99960.78
2022-09-28T22:52:03.887Z,99966.39
2022-09-28T22:54:33.090Z,99966.66
2022-09-28T22:57:02.338Z,99966.66
2022-09-28T22:59:31.541Z,99962.11
2022-09-28T23:02:00.954Z,99967.46
2022-09-28T23:04:31.853Z,99967.46
2022-09-28T23:07:01.230Z,99968.00
2022-09-28T23:09:30.440Z,99966.39
2022-09-28T23:11:59.676Z,99965.86
2022-09-28T23:14:28.975Z,99962.88
2022-09-28T23:16:58.195Z,99962.62
2022-09-28T23:19:27.534Z,99954.87
2022-09-28T23:21:58.396Z,99959.44
2022-09-28T23:24:27.651Z,99957.00
2022-09-28T23:26:57.006Z,99960.21
2022-09-28T23:29:26.328Z,99963.38
2022-09-28T23:31:55.542Z,99956.43
2022-09-28T23:34:24.928Z,99956.13
2022-09-28T23:36:54.959Z,99957.50
2022-09-28T23:39:24.193Z,99964.98
2022-09-28T23:41:53.542Z,99961.78
2022-09-28T23:44:22.740Z,99958.30
2022-09-28T23:46:52.286Z,99956.13
2022-09-28T23:49:21.625Z,99959.61
2022-09-28T23:51:50.933Z,99962.54
2022-09-28T23:54:20.167Z,99963.87
2022-09-28T23:56:49.448Z,99962.77
2022-09-28T23:59:18.799Z,99957.92
